createdAt,value
2018-07-25T00:02:07.253Z,46.61
2018-07-25T00:04:35.991Z,47.13
2018-07-25T00:07:09.878Z,47.22
2018-07-25T00:09:38.639Z,47.33
2018-07-25T00:12:07.645Z,47.28
2018-07-25T00:14:36.447Z,46.67
2018-07-25T00:17:05.355Z,46.95
2018-07-25T00:19:34.895Z,47.67
2018-07-25T00:22:03.653Z,47.50
2018-07-25T00:24:32.487Z,47.93
2018-07-25T00:27:01.292Z,47.97
2018-07-25T00:29:29.973Z,47.47
2018-07-25T00:31:58.883Z,47.47
2018-07-25T00:34:27.592Z,47.87
2018-07-25T00:36:56.403Z,47.50
2018-07-25T00:39:25.205Z,47.68
2018-07-25T00:41:54.723Z,47.87
2018-07-25T00:44:23.716Z,48.16
2018-07-25T00:46:52.381Z,48.53
2018-07-25T00:49:21.153Z,47.85
2018-07-25T00:51:49.863Z,48.70
2018-07-25T00:54:18.609Z,48.81
2018-07-25T00:56:48.045Z,48.68
2018-07-25T00:59:16.925Z,49.04
2018-07-25T01:01:46.242Z,48.48
2018-07-25T01:04:14.989Z,48.56
2018-07-25T01:06:43.864Z,49.28
2018-07-25T01:09:13.421Z,49.36
2018-07-25T01:11:42.150Z,48.98
2018-07-25T01:14:10.863Z,49.64
2018-07-25T01:16:39.765Z,49.88
2018-07-25T01:19:08.485Z,49.44
2018-07-25T01:21:37.783Z,49.15
2018-07-25T01:24:06.569Z,49.92
2018-07-25T01:26:36.149Z,49.76
2018-07-25T01:29:04.751Z,49.42
2018-07-25T01:31:33.553Z,49.67
2018-07-25T01:34:02.285Z,49.84
2018-07-25T01:36:31.225Z,50.16
2018-07-25T01:39:00.091Z,50.11
2018-07-25T01:41:28.779Z,49.92
2018-07-25T01:43:57.521Z,50.23
2018-07-25T01:46:26.383Z,50.59
2018-07-25T01:48:55.197Z,50.53
2018-07-25T01:51:23.963Z,50.62
2018-07-25T01:53:52.599Z,50.50
2018-07-25T01:56:21.441Z,50.06
2018-07-25T01:58:50.381Z,50.28
2018-07-25T02:01:19.248Z,50.72
2018-07-25T02:03:49.148Z,50.64
2018-07-25T02:06:19.100Z,50.75
2018-07-25T02:08:48.057Z,50.41
2018-07-25T02:11:16.985Z,50.97
2018-07-25T02:13:45.668Z,50.82
2018-07-25T02:16:14.182Z,51.34
2018-07-25T02:18:52.195Z,51.55
2018-07-25T02:21:20.608Z,51.52
2018-07-25T02:23:49.074Z,51.45
2018-07-25T02:26:17.595Z,51.74
2018-07-25T02:28:46.175Z,51.96
2018-07-25T02:31:14.599Z,51.63
2018-07-25T02:33:48.404Z,51.65
2018-07-25T02:36:16.856Z,52.34
2018-07-25T02:38:45.557Z,52.42
2018-07-25T02:41:13.943Z,52.38
2018-07-25T02:43:42.660Z,52.91
2018-07-25T02:46:11.108Z,53.35
2018-07-25T02:48:47.570Z,53.51
2018-07-25T02:51:15.973Z,53.61
2018-07-25T02:53:44.732Z,53.92
2018-07-25T02:56:13.192Z,54.55
2018-07-25T02:58:46.675Z,54.99
2018-07-25T03:01:15.067Z,55.11
2018-07-25T03:03:43.444Z,55.23
2018-07-25T03:06:12.236Z,55.42
2018-07-25T03:08:41.534Z,55.02
2018-07-25T03:11:10.096Z,55.41
2018-07-25T03:13:38.759Z,55.87
2018-07-25T03:16:08.362Z,56.04
2018-07-25T03:18:37.020Z,55.78
2018-07-25T03:21:05.439Z,56.38
2018-07-25T03:23:35.821Z,56.41
2018-07-25T03:26:04.394Z,55.99
2018-07-25T03:28:32.926Z,56.55
2018-07-25T03:31:01.736Z,56.35
2018-07-25T03:33:30.200Z,56.77
2018-07-25T03:35:59.727Z,56.40
2018-07-25T03:38:28.762Z,57.20
2018-07-25T03:40:57.211Z,56.49
2018-07-25T03:43:26.197Z,56.71
2018-07-25T03:45:54.715Z,56.87
2018-07-25T03:48:23.087Z,57.39
2018-07-25T03:50:51.557Z,57.53
2018-07-25T03:53:20.312Z,57.61
2018-07-25T03:55:48.750Z,57.77
2018-07-25T03:58:17.276Z,57.78
2018-07-25T04:00:45.705Z,57.32
2018-07-25T04:03:14.151Z,57.40
2018-07-25T04:05:42.607Z,58.04
2018-07-25T04:08:11.172Z,57.86
2018-07-25T04:10:41.688Z,58.37
2018-07-25T04:13:10.479Z,58.18
2018-07-25T04:15:38.965Z,58.05
2018-07-25T04:18:07.682Z,58.69
2018-07-25T04:20:36.387Z,58.86
2018-07-25T04:23:04.939Z,58.88
2018-07-25T04:25:33.330Z,58.63
2018-07-25T04:28:02.109Z,59.14
2018-07-25T04:30:30.598Z,58.85
2018-07-25T04:32:59.018Z,59.16
2018-07-25T04:35:27.462Z,58.80
2018-07-25T04:37:56.111Z,59.38
2018-07-25T04:40:24.561Z,59.44
2018-07-25T04:42:53.881Z,59.25
2018-07-25T04:45:22.373Z,59.39
2018-07-25T04:47:50.824Z,59.57
2018-07-25T04:50:19.746Z,59.27
2018-07-25T04:52:48.156Z,59.75
2018-07-25T04:55:16.596Z,59.87
2018-07-25T04:57:45.089Z,58.06
2018-07-25T05:00:13.614Z,58.13
2018-07-25T05:02:42.676Z,58.22
2018-07-25T05:05:11.390Z,57.96
2018-07-25T05:07:40.118Z,57.60
2018-07-25T05:10:08.728Z,57.26
2018-07-25T05:12:37.383Z,56.66
2018-07-25T05:15:06.686Z,56.64
2018-07-25T05:17:35.502Z,57.09
2018-07-25T05:20:03.960Z,57.32
2018-07-25T05:22:33.158Z,56.66
2018-07-25T05:25:01.626Z,56.93
2018-07-25T05:27:30.142Z,56.51
2018-07-25T05:29:58.670Z,57.11
2018-07-25T05:32:27.086Z,56.04
2018-07-25T05:34:55.548Z,56.62
2018-07-25T05:37:24.112Z,56.55
2018-07-25T05:39:52.663Z,56.10
2018-07-25T05:42:21.163Z,55.99
2018-07-25T05:44:50.067Z,56.29
2018-07-25T05:47:18.742Z,55.64
2018-07-25T05:49:47.394Z,56.06
2018-07-25T05:52:15.940Z,55.63
2018-07-25T05:54:44.908Z,55.91
2018-07-25T05:57:13.946Z,55.81
2018-07-25T05:59:42.370Z,56.08
2018-07-25T06:02:11.117Z,56.48
2018-07-25T06:04:39.537Z,56.31
2018-07-25T06:07:09.239Z,56.04
2018-07-25T06:09:37.980Z,56.10
2018-07-25T06:12:06.763Z,55.84
2018-07-25T06:14:35.526Z,55.66
2018-07-25T06:17:04.148Z,55.24
2018-07-25T06:19:32.559Z,55.19
2018-07-25T06:22:01.363Z,54.52
2018-07-25T06:24:29.808Z,54.61
2018-07-25T06:26:58.589Z,54.39
2018-07-25T06:29:27.098Z,53.89
2018-07-25T06:31:55.570Z,54.40
2018-07-25T06:34:24.002Z,54.08
2018-07-25T06:42:43.136Z,53.81
2018-07-25T06:45:11.621Z,53.32
2018-07-25T06:53:26.912Z,53.79
2018-07-25T06:55:55.605Z,52.83
2018-07-25T06:58:33.794Z,52.55
2018-07-25T07:01:02.750Z,52.91
2018-07-25T07:03:31.287Z,52.96
2018-07-25T07:05:59.798Z,53.08
2018-07-25T07:08:28.540Z,53.64
2018-07-25T07:10:57.130Z,52.61
2018-07-25T07:13:25.671Z,52.12
2018-07-25T07:15:54.314Z,52.27
2018-07-25T07:18:22.889Z,51.86
2018-07-25T07:20:51.366Z,51.59
2018-07-25T07:23:19.885Z,51.14
2018-07-25T07:25:48.540Z,50.76
2018-07-25T07:28:17.089Z,51.59
2018-07-25T07:30:45.507Z,51.74
2018-07-25T07:33:14.116Z,50.30
2018-07-25T07:35:42.813Z,49.42
2018-07-25T07:38:11.444Z,50.05
2018-07-25T07:40:39.960Z,49.83
2018-07-25T07:43:08.735Z,49.79
2018-07-25T07:45:37.225Z,49.27
2018-07-25T07:48:06.047Z,49.79
2018-07-25T07:50:34.655Z,48.85
2018-07-25T07:53:03.206Z,49.35
2018-07-25T07:55:31.717Z,49.17
2018-07-25T07:58:00.681Z,48.78
2018-07-25T08:00:29.165Z,48.91
2018-07-25T08:02:57.629Z,48.46
2018-07-25T08:05:26.434Z,48.17
2018-07-25T08:07:54.972Z,47.88
2018-07-25T08:10:23.658Z,47.26
2018-07-25T08:12:52.375Z,47.70
2018-07-25T08:15:20.923Z,47.88
2018-07-25T08:24:35.841Z,47.54
2018-07-25T08:27:04.381Z,46.58
2018-07-25T08:29:32.861Z,46.32
2018-07-25T08:32:01.413Z,46.32
2018-07-25T08:34:30.102Z,47.22
2018-07-25T08:36:58.775Z,47.20
2018-07-25T08:39:27.251Z,46.75
2018-07-25T08:41:55.714Z,45.92
2018-07-25T08:44:24.290Z,46.71
2018-07-25T08:46:52.803Z,46.03
2018-07-25T08:49:21.289Z,46.18
2018-07-25T08:51:49.741Z,45.15
2018-07-25T08:54:18.198Z,45.78
2018-07-25T08:56:47.136Z,45.68
2018-07-25T08:59:15.596Z,46.04
2018-07-25T09:01:44.282Z,46.27
2018-07-25T09:04:12.692Z,45.31
2018-07-25T09:06:41.152Z,46.42
2018-07-25T09:09:10.686Z,45.66
2018-07-25T09:11:39.610Z,44.95
2018-07-25T09:14:08.144Z,45.52
2018-07-25T09:16:36.562Z,45.78
2018-07-25T09:19:05.225Z,44.92
2018-07-25T09:21:33.830Z,44.38
2018-07-25T09:24:02.644Z,44.20
2018-07-25T09:26:31.191Z,43.89
2018-07-25T09:28:59.878Z,44.66
2018-07-25T09:31:28.573Z,43.84
2018-07-25T09:33:57.383Z,43.21
2018-07-25T09:36:25.950Z,43.62
2018-07-25T09:38:55.280Z,43.55
2018-07-25T09:41:24.184Z,43.23
2018-07-25T09:43:52.720Z,42.87
2018-07-25T09:46:21.305Z,42.20
2018-07-25T09:48:49.911Z,42.74
2018-07-25T09:51:18.698Z,43.15
2018-07-25T09:53:47.213Z,42.98
2018-07-25T09:56:15.821Z,42.77
2018-07-25T09:58:45.014Z,42.76
2018-07-25T10:01:13.723Z,43.30
2018-07-25T10:03:42.308Z,43.38
2018-07-25T10:06:10.964Z,43.78
2018-07-25T10:08:39.360Z,43.71
2018-07-25T10:11:07.860Z,44.14
2018-07-25T10:13:36.468Z,43.86
2018-07-25T10:16:04.948Z,43.50
2018-07-25T10:18:33.629Z,43.48
2018-07-25T10:21:02.352Z,43.37
2018-07-25T10:23:31.074Z,42.91
2018-07-25T10:25:59.760Z,42.33
2018-07-25T10:28:28.515Z,42.02
2018-07-25T10:30:57.078Z,41.52
2018-07-25T10:33:25.912Z,40.57
2018-07-25T10:35:54.773Z,40.82
2018-07-25T10:38:23.360Z,41.57
2018-07-25T10:40:52.080Z,41.83
2018-07-25T10:43:20.763Z,40.64
2018-07-25T10:45:49.782Z,40.29
2018-07-25T10:48:18.282Z,39.83
2018-07-25T10:50:46.800Z,39.87
2018-07-25T10:53:15.319Z,40.12
2018-07-25T10:55:43.838Z,40.01
2018-07-25T10:58:12.594Z,39.04
2018-07-25T11:00:41.477Z,39.26
2018-07-25T11:03:10.286Z,37.54
2018-07-25T11:05:38.848Z,38.46
2018-07-25T11:08:07.490Z,37.37
2018-07-25T11:10:36.204Z,36.86
2018-07-25T11:13:04.752Z,36.60
2018-07-25T11:15:33.222Z,36.56
2018-07-25T11:18:01.860Z,36.95
2018-07-25T11:20:30.431Z,36.93
2018-07-25T11:22:59.225Z,37.17
2018-07-25T11:28:02.508Z,37.31
2018-07-25T11:30:31.004Z,37.10
2018-07-25T11:32:59.479Z,36.90
2018-07-25T11:35:27.906Z,35.45
2018-07-25T11:37:57.230Z,35.09
2018-07-25T11:40:25.878Z,34.07
2018-07-25T11:42:54.798Z,34.49
2018-07-25T11:45:24.164Z,34.42
2018-07-25T11:47:52.672Z,33.02
2018-07-25T11:50:21.602Z,32.74
2018-07-25T11:52:50.352Z,33.31
2018-07-25T11:55:19.057Z,31.97
2018-07-25T11:57:47.638Z,32.66
2018-07-25T12:00:16.060Z,31.50
2018-07-25T12:02:44.538Z,32.52
2018-07-25T12:05:12.963Z,31.77
2018-07-25T12:07:41.347Z,32.25
2018-07-25T12:10:10.199Z,32.62
2018-07-25T12:12:38.670Z,32.11
2018-07-25T12:15:08.358Z,32.85
2018-07-25T12:17:37.121Z,32.26
2018-07-25T12:20:05.981Z,32.50
2018-07-25T12:22:34.356Z,33.52
2018-07-25T12:25:03.149Z,32.63
2018-07-25T12:27:31.921Z,31.43
2018-07-25T12:30:00.398Z,30.23
2018-07-25T12:32:28.827Z,29.37
2018-07-25T12:34:57.391Z,29.23
2018-07-25T12:37:25.967Z,28.33
2018-07-25T12:39:54.542Z,28.85
2018-07-25T12:42:22.949Z,28.62
2018-07-25T12:44:51.474Z,28.66
2018-07-25T12:47:19.959Z,29.30
2018-07-25T12:49:48.388Z,29.73
2018-07-25T12:52:17.099Z,30.60
2018-07-25T12:54:45.707Z,31.80
2018-07-25T12:57:14.171Z,32.67
2018-07-25T12:59:42.827Z,32.47
2018-07-25T13:02:11.294Z,32.81
2018-07-25T13:04:39.917Z,33.22
2018-07-25T13:07:08.527Z,33.90
2018-07-25T13:09:37.232Z,33.61
2018-07-25T13:12:05.997Z,33.65
2018-07-25T13:14:34.578Z,32.41
2018-07-25T13:17:03.123Z,32.32
2018-07-25T13:19:31.651Z,32.47
2018-07-25T13:22:00.188Z,32.49
2018-07-25T13:24:28.918Z,32.64
2018-07-25T13:27:02.514Z,32.76
2018-07-25T13:29:31.007Z,33.19
2018-07-25T13:31:59.473Z,32.86
2018-07-25T13:34:28.196Z,32.21
2018-07-25T13:36:56.800Z,32.54
2018-07-25T13:39:25.600Z,31.46
2018-07-25T13:41:54.046Z,30.65
2018-07-25T13:44:22.555Z,30.71
2018-07-25T13:46:51.188Z,30.77
2018-07-25T13:49:19.683Z,29.67
2018-07-25T13:51:48.140Z,28.83
2018-07-25T13:54:16.950Z,29.04
2018-07-25T13:56:45.612Z,28.25
2018-07-25T13:59:14.539Z,27.99
2018-07-25T14:01:43.103Z,27.65
2018-07-25T14:04:11.847Z,27.54
2018-07-25T14:06:40.309Z,27.89
2018-07-25T14:09:10.535Z,28.14
2018-07-25T14:11:39.383Z,26.96
2018-07-25T14:14:08.075Z,26.89
2018-07-25T14:16:36.593Z,26.71
2018-07-25T14:19:05.283Z,26.29
2018-07-25T14:21:34.065Z,26.27
2018-07-25T14:24:03.042Z,26.77
2018-07-25T14:26:31.599Z,26.75
2018-07-25T14:29:01.453Z,25.84
2018-07-25T14:31:30.123Z,26.07
2018-07-25T14:33:58.811Z,26.09
2018-07-25T14:36:27.476Z,25.94
2018-07-25T14:39:01.224Z,27.26
2018-07-25T14:41:30.180Z,26.14
2018-07-25T14:43:58.884Z,26.78
2018-07-25T14:46:28.354Z,26.66
2018-07-25T14:48:57.171Z,26.90
2018-07-25T14:51:26.851Z,27.44
2018-07-25T14:53:56.280Z,27.16
2018-07-25T14:56:24.953Z,27.70
2018-07-25T14:58:53.748Z,27.62
2018-07-25T15:01:22.598Z,27.20
2018-07-25T15:03:51.238Z,26.87
2018-07-25T15:06:19.922Z,27.01
2018-07-25T15:08:49.255Z,26.11
2018-07-25T15:11:17.993Z,26.52
2018-07-25T15:13:47.571Z,26.89
2018-07-25T15:16:17.362Z,27.01
2018-07-25T15:18:46.210Z,27.06
2018-07-25T15:21:15.022Z,28.31
2018-07-25T15:24:04.452Z,28.54
2018-07-25T15:26:33.127Z,28.75
2018-07-25T15:29:07.502Z,29.15
2018-07-25T15:31:35.914Z,29.09
2018-07-25T15:34:04.771Z,29.57
2018-07-25T15:36:46.605Z,29.82
2018-07-25T15:39:17.561Z,28.85
2018-07-25T15:41:46.985Z,29.66
2018-07-25T15:44:16.096Z,29.80
2018-07-25T15:46:45.282Z,30.17
2018-07-25T15:49:13.865Z,31.16
2018-07-25T15:51:42.341Z,29.89
2018-07-25T15:54:10.877Z,29.72
2018-07-25T15:56:39.767Z,29.67
2018-07-25T15:59:08.909Z,29.95
2018-07-25T16:01:37.724Z,31.20
2018-07-25T16:04:06.271Z,31.34
2018-07-25T16:06:34.735Z,31.50
2018-07-25T16:09:04.657Z,30.76
2018-07-25T16:11:33.498Z,30.77
2018-07-25T16:14:02.029Z,29.44
2018-07-25T16:16:30.547Z,30.59
2018-07-25T16:18:59.166Z,31.01
2018-07-25T16:21:27.672Z,29.97
2018-07-25T16:23:56.216Z,30.23
2018-07-25T16:26:24.542Z,30.66
2018-07-25T16:28:53.399Z,31.69
2018-07-25T16:31:21.904Z,31.05
2018-07-25T16:33:50.317Z,31.19
2018-07-25T16:36:18.875Z,30.62
2018-07-25T16:38:47.370Z,30.76
2018-07-25T16:41:15.873Z,30.05
2018-07-25T16:43:44.283Z,31.42
2018-07-25T16:46:12.789Z,30.51
2018-07-25T16:48:41.206Z,30.92
2018-07-25T16:51:09.703Z,31.41
2018-07-25T16:53:38.125Z,31.30
2018-07-25T16:56:06.928Z,30.84
2018-07-25T16:58:35.633Z,31.45
2018-07-25T17:01:04.089Z,31.33
2018-07-25T17:03:32.952Z,31.34
2018-07-25T17:06:01.703Z,30.99
2018-07-25T17:08:35.343Z,31.46
2018-07-25T17:11:04.021Z,31.20
2018-07-25T17:13:32.726Z,31.75
2018-07-25T17:16:01.779Z,33.12
2018-07-25T17:18:32.335Z,33.33
2018-07-25T17:21:01.137Z,31.97
2018-07-25T17:23:29.665Z,31.81
2018-07-25T17:25:58.575Z,31.24
2018-07-25T17:28:27.860Z,31.39
2018-07-25T17:30:56.818Z,31.17
2018-07-25T17:33:26.088Z,31.04
2018-07-25T17:35:55.598Z,31.83
2018-07-25T17:38:25.573Z,31.53
2018-07-25T17:40:54.705Z,31.43
2018-07-25T17:43:23.462Z,31.64
2018-07-25T17:45:52.236Z,32.84
2018-07-25T17:48:20.978Z,31.42
2018-07-25T17:50:49.902Z,31.11
2018-07-25T17:53:19.884Z,31.06
2018-07-25T17:55:48.625Z,31.10
2018-07-25T17:58:19.689Z,30.86
2018-07-25T18:00:48.413Z,31.75
2018-07-25T18:03:17.359Z,31.86
2018-07-25T18:05:46.170Z,31.40
2018-07-25T18:08:15.077Z,31.72
2018-07-25T18:10:43.566Z,30.58
2018-07-25T18:13:17.311Z,31.74
2018-07-25T18:15:45.869Z,31.84
2018-07-25T18:18:14.432Z,32.22
2018-07-25T18:20:43.142Z,31.44
2018-07-25T18:23:11.710Z,31.91
2018-07-25T18:25:44.203Z,31.86
2018-07-25T18:28:12.769Z,31.62
2018-07-25T18:30:41.553Z,32.15
2018-07-25T18:33:10.172Z,31.43
2018-07-25T18:35:39.755Z,32.02
2018-07-25T18:38:13.343Z,32.94
2018-07-25T18:40:41.994Z,33.13
2018-07-25T18:43:10.788Z,32.06
2018-07-25T18:45:39.786Z,32.77
2018-07-25T18:48:08.792Z,33.13
2018-07-25T18:50:37.461Z,33.39
2018-07-25T18:53:07.225Z,33.39
2018-07-25T18:55:36.168Z,33.58
2018-07-25T18:58:05.176Z,32.94
2018-07-25T19:00:33.702Z,33.71
2018-07-25T19:03:03.248Z,33.51
2018-07-25T19:05:32.533Z,33.82
2018-07-25T19:08:06.247Z,34.19
2018-07-25T19:10:35.057Z,32.89
2018-07-25T19:13:07.235Z,33.73
2018-07-25T19:15:36.050Z,34.56
2018-07-25T19:18:14.348Z,33.06
2018-07-25T19:20:43.164Z,33.81
2018-07-25T19:23:11.733Z,33.81
2018-07-25T19:25:40.335Z,33.22
2018-07-25T19:31:01.446Z,33.25
2018-07-25T19:33:30.274Z,33.63
2018-07-25T19:35:59.879Z,33.86
2018-07-25T19:41:29.136Z,33.60
2018-07-25T19:44:00.038Z,34.28
2018-07-25T19:46:30.163Z,34.31
2018-07-25T19:49:03.865Z,34.39
2018-07-25T19:51:32.751Z,33.66
2018-07-25T19:54:01.426Z,34.08
2018-07-25T19:56:30.859Z,34.65
2018-07-25T19:59:00.135Z,34.08
2018-07-25T20:01:28.843Z,34.73
2018-07-25T20:03:57.453Z,35.01
2018-07-25T20:06:26.310Z,34.67
2018-07-25T20:08:54.907Z,35.23
2018-07-25T20:11:23.594Z,34.93
2018-07-25T20:13:57.851Z,34.49
2018-07-25T20:16:26.730Z,34.57
2018-07-25T20:18:55.535Z,35.57
2018-07-25T20:21:24.082Z,35.65
2018-07-25T20:23:52.967Z,36.02
2018-07-25T20:26:21.543Z,36.45
2018-07-25T20:28:49.942Z,36.42
2018-07-25T20:31:18.756Z,37.14
2018-07-25T20:33:47.381Z,37.04
2018-07-25T20:36:16.163Z,37.50
2018-07-25T20:38:45.269Z,37.79
2018-07-25T20:41:13.974Z,37.17
2018-07-25T20:43:42.856Z,38.26
2018-07-25T20:46:11.602Z,37.99
2018-07-25T20:48:40.517Z,37.96
2018-07-25T20:51:09.509Z,38.87
2018-07-25T20:53:38.407Z,38.71
2018-07-25T20:56:08.447Z,38.51
2018-07-25T20:58:43.649Z,38.56
2018-07-25T21:01:13.664Z,39.26
2018-07-25T21:03:42.918Z,39.45
2018-07-25T21:06:17.833Z,39.50
2018-07-25T21:08:47.676Z,39.55
2018-07-25T21:11:16.708Z,39.76
2018-07-25T21:13:46.859Z,39.96
2018-07-25T21:16:23.294Z,39.55
2018-07-25T21:18:52.542Z,39.79
2018-07-25T21:21:23.872Z,40.00
2018-07-25T21:23:53.964Z,40.49
2018-07-25T21:26:22.666Z,40.17
2018-07-25T21:28:51.862Z,40.12
2018-07-25T21:31:20.633Z,40.95
2018-07-25T21:33:49.377Z,41.23
2018-07-25T21:36:19.130Z,40.71
2018-07-25T21:41:45.702Z,41.31
2018-07-25T21:44:14.546Z,41.83
2018-07-25T21:46:43.585Z,40.88
2018-07-25T21:52:04.976Z,41.76
2018-07-25T21:54:34.737Z,42.18
2018-07-25T21:57:04.224Z,41.65
2018-07-25T21:59:33.380Z,42.58
2018-07-25T22:02:02.178Z,41.94
2018-07-25T22:04:30.787Z,41.92
2018-07-25T22:06:59.979Z,42.04
2018-07-25T22:09:29.104Z,41.98
2018-07-25T22:11:58.488Z,42.07
2018-07-25T22:14:27.171Z,42.38
2018-07-25T22:16:55.999Z,42.70
2018-07-25T22:19:24.582Z,42.86
2018-07-25T22:21:53.226Z,42.93
2018-07-25T22:24:22.046Z,43.29
2018-07-25T22:26:51.444Z,43.28
2018-07-25T22:29:23.488Z,42.53
2018-07-25T22:31:52.469Z,42.56
2018-07-25T22:34:23.520Z,43.35
2018-07-25T22:36:53.238Z,43.00
2018-07-25T22:39:28.081Z,43.72
2018-07-25T22:42:02.395Z,43.53
2018-07-25T22:44:36.788Z,43.87
2018-07-25T22:47:24.936Z,43.88
2018-07-25T22:50:01.219Z,43.47
2018-07-25T22:52:34.916Z,43.68
2018-07-25T22:55:05.127Z,44.66
2018-07-25T23:00:38.306Z,43.56
2018-07-25T23:03:12.036Z,44.60
2018-07-25T23:05:40.934Z,44.26
2018-07-25T23:08:14.754Z,44.34
2018-07-25T23:10:43.798Z,44.41
2018-07-25T23:13:14.246Z,44.14
2018-07-25T23:15:46.353Z,44.90
2018-07-25T23:18:24.869Z,44.65
2018-07-25T23:20:58.168Z,44.74
2018-07-25T23:23:34.002Z,45.29
2018-07-25T23:26:09.050Z,45.54
2018-07-25T23:28:39.418Z,45.42
2018-07-25T23:31:09.778Z,46.06
2018-07-25T23:33:40.944Z,46.07
2018-07-25T23:36:16.228Z,46.07
2018-07-25T23:41:47.021Z,46.05
2018-07-25T23:44:21.065Z,46.09
2018-07-25T23:46:50.849Z,46.82
2018-07-25T23:49:33.351Z,47.36
2018-07-25T23:52:04.511Z,47.04
2018-07-25T23:54:36.643Z,47.45
